createdAt,value
2018-07-19T00:01:27.180Z,58.77
2018-07-19T00:03:55.490Z,59.11
2018-07-19T00:06:23.764Z,60.25
2018-07-19T00:08:51.871Z,60.47
2018-07-19T00:11:20.020Z,60.09
2018-07-19T00:13:48.100Z,59.95
2018-07-19T00:16:16.266Z,60.07
2018-07-19T00:18:44.370Z,60.91
2018-07-19T00:21:12.431Z,62.28
2018-07-19T00:23:40.507Z,60.96
2018-07-19T00:26:09.259Z,60.47
2018-07-19T00:28:37.316Z,60.68
2018-07-19T00:31:05.636Z,61.84
2018-07-19T00:33:33.821Z,63.13
2018-07-19T00:36:01.999Z,61.82
2018-07-19T00:38:30.509Z,62.45
2018-07-19T00:40:58.668Z,63.27
2018-07-19T00:43:26.875Z,63.39
2018-07-19T00:45:55.048Z,64.01
2018-07-19T00:48:23.102Z,63.93
2018-07-19T00:50:51.131Z,64.69
2018-07-19T00:53:19.203Z,64.41
2018-07-19T00:55:48.290Z,64.70
2018-07-19T00:58:16.381Z,65.42
2018-07-19T01:00:44.407Z,64.93
2018-07-19T01:03:12.455Z,65.62
2018-07-19T01:05:40.491Z,64.97
2018-07-19T01:08:08.562Z,65.08
2018-07-19T01:10:36.631Z,65.00
2018-07-19T01:13:04.971Z,65.60
2018-07-19T01:15:33.021Z,65.45
2018-07-19T01:18:01.073Z,65.75
2018-07-19T01:20:29.141Z,65.02
2018-07-19T01:22:57.223Z,65.98
2018-07-19T01:25:25.275Z,65.81
2018-07-19T01:27:53.571Z,65.59
2018-07-19T01:30:21.619Z,66.14
2018-07-19T01:32:49.699Z,67.12
2018-07-19T01:35:17.747Z,66.51
2018-07-19T01:37:45.808Z,66.11
2018-07-19T01:40:13.906Z,67.09
2018-07-19T01:42:44.911Z,66.50
2018-07-19T01:45:13.671Z,66.67
2018-07-19T01:47:42.052Z,66.34
2018-07-19T01:50:10.956Z,66.49
2018-07-19T01:52:39.159Z,66.15
2018-07-19T01:55:07.966Z,66.49
2018-07-19T01:57:36.278Z,66.92
2018-07-19T02:00:04.997Z,67.40
2018-07-19T02:02:33.039Z,68.36
2018-07-19T02:05:01.325Z,67.34
2018-07-19T02:07:29.389Z,67.83
2018-07-19T02:09:57.453Z,67.35
2018-07-19T02:12:25.559Z,68.22
2018-07-19T02:14:53.657Z,68.39
2018-07-19T02:17:21.883Z,67.93
2018-07-19T02:19:49.987Z,69.21
2018-07-19T02:22:18.055Z,69.98
2018-07-19T02:24:46.132Z,70.37
2018-07-19T02:27:14.235Z,70.30
2018-07-19T02:29:42.338Z,69.69
2018-07-19T02:32:10.427Z,69.09
2018-07-19T02:34:38.511Z,68.74
2018-07-19T02:37:06.603Z,68.63
2018-07-19T02:39:34.711Z,69.51
2018-07-19T02:42:02.833Z,69.21
2018-07-19T02:44:30.955Z,68.94
2018-07-19T02:46:59.377Z,69.18
2018-07-19T02:49:27.532Z,69.28
2018-07-19T02:51:55.940Z,70.04
2018-07-19T02:54:24.033Z,70.65
2018-07-19T02:56:52.100Z,70.29
2018-07-19T02:59:20.167Z,70.36
2018-07-19T03:01:48.240Z,70.63
2018-07-19T03:04:16.319Z,70.29
2018-07-19T03:06:44.390Z,70.60
2018-07-19T03:09:12.450Z,70.40
2018-07-19T03:11:42.791Z,70.16
2018-07-19T03:14:10.883Z,71.26
2018-07-19T03:16:38.959Z,70.43
2018-07-19T03:19:07.043Z,70.50
2018-07-19T03:21:35.109Z,70.49
2018-07-19T03:24:03.203Z,70.22
2018-07-19T03:26:31.285Z,70.06
2018-07-19T03:28:59.623Z,70.16
2018-07-19T03:31:27.704Z,69.76
2018-07-19T03:33:55.801Z,70.63
2018-07-19T03:36:23.895Z,71.26
2018-07-19T03:38:51.969Z,71.03
2018-07-19T03:41:20.032Z,70.84
2018-07-19T03:43:48.267Z,70.93
2018-07-19T03:46:16.319Z,71.18
2018-07-19T03:48:44.428Z,71.43
2018-07-19T03:51:12.728Z,70.62
2018-07-19T03:53:40.800Z,70.37
2018-07-19T03:56:08.872Z,69.78
2018-07-19T03:58:36.955Z,69.37
2018-07-19T04:01:05.017Z,68.92
2018-07-19T04:03:33.291Z,68.83
2018-07-19T04:06:01.392Z,69.21
2018-07-19T04:08:29.495Z,69.50
2018-07-19T04:10:57.588Z,69.44
2018-07-19T04:13:25.667Z,70.00
2018-07-19T04:15:53.764Z,69.83
2018-07-19T04:18:21.821Z,69.20
2018-07-19T04:20:49.895Z,69.35
2018-07-19T04:23:17.994Z,68.70
2018-07-19T04:25:46.044Z,68.70
2018-07-19T04:28:14.116Z,68.59
2018-07-19T04:30:42.216Z,68.16
2018-07-19T04:33:10.325Z,68.40
2018-07-19T04:35:38.375Z,67.32
2018-07-19T04:38:06.503Z,67.05
2018-07-19T04:40:34.516Z,65.89
2018-07-19T04:43:02.640Z,63.74
2018-07-19T04:45:30.704Z,60.98
2018-07-19T04:47:58.751Z,58.17
2018-07-19T04:50:26.815Z,56.62
2018-07-19T04:52:54.880Z,51.82
2018-07-19T04:55:22.952Z,49.07
2018-07-19T04:57:51.026Z,49.60
2018-07-19T05:00:19.132Z,47.62
2018-07-19T05:02:47.205Z,45.93
2018-07-19T05:05:15.291Z,44.54
2018-07-19T05:07:43.404Z,45.50
2018-07-19T05:10:11.483Z,45.92
2018-07-19T05:12:39.547Z,44.49
2018-07-19T05:15:08.003Z,42.78
2018-07-19T05:17:36.219Z,42.62
2018-07-19T05:20:04.352Z,43.63
2018-07-19T05:22:32.423Z,41.70
2018-07-19T05:25:00.533Z,41.70
2018-07-19T05:27:28.592Z,40.85
2018-07-19T05:29:56.679Z,40.76
2018-07-19T05:32:24.754Z,40.68
2018-07-19T05:34:52.819Z,38.97
2018-07-19T05:37:20.902Z,38.70
2018-07-19T05:39:48.963Z,38.33
2018-07-19T05:42:17.066Z,37.31
2018-07-19T05:44:45.112Z,37.19
2018-07-19T05:47:13.336Z,35.56
2018-07-19T05:49:42.383Z,35.67
2018-07-19T05:52:10.707Z,35.21
2018-07-19T05:54:38.858Z,34.13
2018-07-19T05:57:06.919Z,32.75
2018-07-19T05:59:35.032Z,33.78
2018-07-19T06:02:03.095Z,33.68
2018-07-19T06:04:31.175Z,32.70
2018-07-19T06:06:59.459Z,32.82
2018-07-19T06:09:27.495Z,33.14
2018-07-19T06:11:55.595Z,32.96
2018-07-19T06:14:23.692Z,31.89
2018-07-19T06:16:51.766Z,31.76
2018-07-19T06:19:19.809Z,31.18
2018-07-19T06:21:47.875Z,30.15
2018-07-19T06:24:16.175Z,30.30
2018-07-19T06:26:44.223Z,29.77
2018-07-19T06:29:12.339Z,29.55
2018-07-19T06:31:40.438Z,28.49
2018-07-19T06:34:09.516Z,29.36
2018-07-19T06:36:37.592Z,28.53
2018-07-19T06:39:07.330Z,28.51
2018-07-19T06:41:35.431Z,28.80
2018-07-19T06:44:03.480Z,28.00
2018-07-19T06:46:31.563Z,28.62
2018-07-19T06:48:59.599Z,26.83
2018-07-19T06:51:27.719Z,27.38
2018-07-19T06:53:55.784Z,26.40
2018-07-19T06:56:23.996Z,27.32
2018-07-19T06:58:52.181Z,27.58
2018-07-19T07:01:20.222Z,26.06
2018-07-19T07:03:48.298Z,26.65
2018-07-19T07:06:16.392Z,24.95
2018-07-19T07:08:44.513Z,25.75
2018-07-19T07:11:12.580Z,24.95
2018-07-19T07:13:40.623Z,26.37
2018-07-19T07:16:08.723Z,26.63
2018-07-19T07:18:36.814Z,26.05
2018-07-19T07:21:04.969Z,25.59
2018-07-19T07:23:33.020Z,25.02
2018-07-19T07:26:01.108Z,25.62
2018-07-19T07:28:29.130Z,25.98
2018-07-19T07:30:57.407Z,25.74
2018-07-19T07:33:25.478Z,25.96
2018-07-19T07:35:53.563Z,24.81
2018-07-19T07:38:21.662Z,25.85
2018-07-19T07:40:49.740Z,26.16
2018-07-19T07:43:17.859Z,26.31
2018-07-19T07:45:45.924Z,25.77
2018-07-19T07:48:14.034Z,26.31
2018-07-19T07:50:42.128Z,26.59
2018-07-19T07:53:10.209Z,24.59
2018-07-19T07:55:38.284Z,25.83
2018-07-19T07:58:06.336Z,23.34
2018-07-19T08:00:34.437Z,24.36
2018-07-19T08:03:02.503Z,23.86
2018-07-19T08:05:30.590Z,23.64
2018-07-19T08:07:58.668Z,25.44
2018-07-19T08:10:26.726Z,25.44
2018-07-19T08:12:54.824Z,25.76
2018-07-19T08:15:22.987Z,24.87
2018-07-19T08:17:51.072Z,23.93
2018-07-19T08:20:19.189Z,24.79
2018-07-19T08:22:47.294Z,24.75
2018-07-19T08:25:16.363Z,26.09
2018-07-19T08:27:44.412Z,25.92
2018-07-19T08:30:12.475Z,25.69
2018-07-19T08:32:41.374Z,25.51
2018-07-19T08:35:09.431Z,25.86
2018-07-19T08:37:38.116Z,25.19
2018-07-19T08:40:06.219Z,25.64
2018-07-19T08:42:34.348Z,26.47
2018-07-19T08:45:02.375Z,25.87
2018-07-19T08:47:31.478Z,25.98
2018-07-19T08:49:59.530Z,25.62
2018-07-19T08:52:27.600Z,24.13
2018-07-19T08:54:55.658Z,24.81
2018-07-19T08:57:23.712Z,24.40
2018-07-19T08:59:51.804Z,24.94
2018-07-19T09:02:19.943Z,24.76
2018-07-19T09:04:47.984Z,26.45
2018-07-19T09:07:16.035Z,25.72
2018-07-19T09:09:44.098Z,25.74
2018-07-19T09:12:12.189Z,25.07
2018-07-19T09:14:40.282Z,25.31
2018-07-19T09:17:08.351Z,25.93
2018-07-19T09:19:36.453Z,26.50
2018-07-19T09:22:04.532Z,25.42
2018-07-19T09:24:32.589Z,25.17
2018-07-19T09:27:00.685Z,25.04
2018-07-19T09:29:28.790Z,25.42
2018-07-19T09:31:56.862Z,25.80
2018-07-19T09:34:24.960Z,25.62
2018-07-19T09:36:53.079Z,25.57
2018-07-19T09:39:21.192Z,24.62
2018-07-19T09:41:49.259Z,24.32
2018-07-19T09:44:17.368Z,24.11
2018-07-19T09:46:45.426Z,24.03
2018-07-19T09:49:13.488Z,21.99
2018-07-19T09:51:41.695Z,23.69
2018-07-19T09:54:10.564Z,24.04
2018-07-19T09:56:38.644Z,23.27
2018-07-19T09:59:06.919Z,23.61
2018-07-19T10:01:34.968Z,23.38
2018-07-19T10:04:03.026Z,23.64
2018-07-19T10:06:31.119Z,24.55
2018-07-19T10:08:59.184Z,23.33
2018-07-19T10:11:27.365Z,24.29
2018-07-19T10:13:55.529Z,24.35
2018-07-19T10:16:23.694Z,25.67
2018-07-19T10:18:51.861Z,24.98
2018-07-19T10:21:20.091Z,26.12
2018-07-19T10:23:48.155Z,26.20
2018-07-19T10:26:16.212Z,25.79
2018-07-19T10:28:44.552Z,25.96
2018-07-19T10:31:12.614Z,26.29
2018-07-19T10:33:40.688Z,26.10
2018-07-19T10:36:08.762Z,26.54
2018-07-19T10:38:36.840Z,26.54
2018-07-19T10:41:05.047Z,26.77
2018-07-19T10:43:33.897Z,26.63
2018-07-19T10:46:02.167Z,26.89
2018-07-19T10:48:30.316Z,26.76
2018-07-19T10:50:58.778Z,27.33
2018-07-19T10:53:26.975Z,26.52
2018-07-19T10:55:55.028Z,27.76
2018-07-19T10:58:23.309Z,28.17
2018-07-19T11:00:51.584Z,28.62
2018-07-19T11:03:19.669Z,28.94
2018-07-19T11:05:47.796Z,28.90
2018-07-19T11:08:18.756Z,29.70
2018-07-19T11:10:46.963Z,28.98
2018-07-19T11:13:15.011Z,30.37
2018-07-19T11:15:43.066Z,30.49
2018-07-19T11:18:11.230Z,29.67
2018-07-19T11:20:39.330Z,29.91
2018-07-19T11:23:07.394Z,29.64
2018-07-19T11:25:35.497Z,29.78
2018-07-19T11:28:03.571Z,30.07
2018-07-19T11:30:31.607Z,30.18
2018-07-19T11:32:59.721Z,30.34
2018-07-19T11:35:27.843Z,31.28
2018-07-19T11:37:55.947Z,30.21
2018-07-19T11:40:26.160Z,29.46
2018-07-19T11:42:54.315Z,30.42
2018-07-19T11:45:22.536Z,29.78
2018-07-19T11:47:50.935Z,29.39
2018-07-19T11:50:19.047Z,29.91
2018-07-19T11:52:47.114Z,29.89
2018-07-19T11:55:15.186Z,29.43
2018-07-19T11:57:43.244Z,29.94
2018-07-19T12:00:11.383Z,30.01
2018-07-19T12:02:39.517Z,30.10
2018-07-19T12:05:07.728Z,30.67
2018-07-19T12:07:36.282Z,29.97
2018-07-19T12:10:04.750Z,29.97
2018-07-19T12:12:32.947Z,29.81
2018-07-19T12:15:01.302Z,29.45
2018-07-19T12:17:29.583Z,29.74
2018-07-19T12:19:57.883Z,28.76
2018-07-19T12:22:26.584Z,29.11
2018-07-19T12:24:54.823Z,30.03
2018-07-19T12:27:22.903Z,30.09
2018-07-19T12:29:51.262Z,30.32
2018-07-19T12:32:19.316Z,29.20
2018-07-19T12:34:47.379Z,28.78
2018-07-19T12:37:15.472Z,29.06
2018-07-19T12:39:44.403Z,29.24
2018-07-19T12:42:12.526Z,29.13
2018-07-19T12:44:40.591Z,29.04
2018-07-19T12:47:08.767Z,29.26
2018-07-19T12:49:36.844Z,29.26
2018-07-19T12:52:04.957Z,28.05
2018-07-19T12:54:32.979Z,27.94
2018-07-19T12:57:01.098Z,28.15
2018-07-19T12:59:29.112Z,28.76
2018-07-19T13:01:58.096Z,28.85
2018-07-19T13:04:27.028Z,28.59
2018-07-19T13:06:55.526Z,28.88
2018-07-19T13:09:23.680Z,28.94
2018-07-19T13:11:52.004Z,29.62
2018-07-19T13:14:20.075Z,29.85
2018-07-19T13:16:48.119Z,29.32
2018-07-19T13:19:16.190Z,29.01
2018-07-19T13:21:44.341Z,28.80
2018-07-19T13:24:12.454Z,28.83
2018-07-19T13:26:40.609Z,29.45
2018-07-19T13:29:08.794Z,29.90
2018-07-19T13:31:36.852Z,28.98
2018-07-19T13:34:04.983Z,29.95
2018-07-19T13:36:38.204Z,29.45
2018-07-19T13:39:07.792Z,29.80
2018-07-19T13:41:35.873Z,29.48
2018-07-19T13:44:04.195Z,29.09
2018-07-19T13:46:32.264Z,29.32
2018-07-19T13:49:00.351Z,29.87
2018-07-19T13:51:29.017Z,28.63
2018-07-19T13:54:15.709Z,28.45
2018-07-19T13:56:44.080Z,28.38
2018-07-19T13:59:12.311Z,29.28
2018-07-19T14:01:40.572Z,28.55
2018-07-19T14:04:09.054Z,28.71
2018-07-19T14:06:37.215Z,28.09
2018-07-19T14:09:13.096Z,28.08
2018-07-19T14:11:41.333Z,28.14
2018-07-19T14:14:09.649Z,28.64
2018-07-19T14:16:37.932Z,29.15
2018-07-19T14:19:06.375Z,29.07
2018-07-19T14:21:34.818Z,28.62
2018-07-19T14:24:02.916Z,28.46
2018-07-19T14:26:31.086Z,29.01
2018-07-19T14:28:59.154Z,29.32
2018-07-19T14:31:27.251Z,29.33
2018-07-19T14:33:55.388Z,28.25
2018-07-19T14:36:23.460Z,28.19
2018-07-19T14:38:51.776Z,28.83
2018-07-19T14:41:20.107Z,28.06
2018-07-19T14:43:48.252Z,28.35
2018-07-19T14:46:16.321Z,29.19
2018-07-19T14:48:44.384Z,29.34
2018-07-19T14:51:12.711Z,28.00
2018-07-19T14:53:41.107Z,27.95
2018-07-19T14:56:10.207Z,28.15
2018-07-19T14:58:38.487Z,28.33
2018-07-19T15:01:06.643Z,28.25
2018-07-19T15:03:34.994Z,28.61
2018-07-19T15:06:03.172Z,27.97
2018-07-19T15:08:31.210Z,28.45
2018-07-19T15:10:59.282Z,27.28
2018-07-19T15:13:27.476Z,28.04
2018-07-19T15:15:55.617Z,27.32
2018-07-19T15:18:23.711Z,27.40
2018-07-19T15:20:51.882Z,27.63
2018-07-19T15:23:20.002Z,28.69
2018-07-19T15:25:48.104Z,28.16
2018-07-19T15:28:16.236Z,28.76
2018-07-19T15:30:44.310Z,28.45
2018-07-19T15:33:12.376Z,28.80
2018-07-19T15:35:40.451Z,27.71
2018-07-19T15:38:08.504Z,28.19
2018-07-19T15:40:36.624Z,29.23
2018-07-19T15:43:04.914Z,28.55
2018-07-19T15:45:33.280Z,28.40
2018-07-19T15:48:01.410Z,29.43
2018-07-19T15:50:29.527Z,29.16
2018-07-19T15:52:57.712Z,28.62
2018-07-19T15:55:25.852Z,28.99
2018-07-19T15:57:54.135Z,29.32
2018-07-19T16:00:22.254Z,28.83
2018-07-19T16:02:50.382Z,29.03
2018-07-19T16:05:18.474Z,28.86
2018-07-19T16:07:46.607Z,29.70
2018-07-19T16:10:14.655Z,29.15
2018-07-19T16:12:42.699Z,29.87
2018-07-19T16:15:10.767Z,29.05
2018-07-19T16:17:38.967Z,29.08
2018-07-19T16:20:07.487Z,28.39
2018-07-19T16:22:35.951Z,28.87
2018-07-19T16:25:04.604Z,28.75
2018-07-19T16:27:32.940Z,28.74
2018-07-19T16:30:01.419Z,28.47
2018-07-19T16:32:30.200Z,28.51
2018-07-19T16:34:58.982Z,28.92
2018-07-19T16:37:27.054Z,28.61
2018-07-19T16:39:55.116Z,28.22
2018-07-19T16:42:23.954Z,27.96
2018-07-19T16:44:51.999Z,28.89
2018-07-19T16:47:20.161Z,29.96
2018-07-19T16:49:48.623Z,28.86
2018-07-19T16:52:16.756Z,28.55
2018-07-19T16:54:45.193Z,28.93
2018-07-19T16:57:13.235Z,28.92
2018-07-19T16:59:41.325Z,29.36
2018-07-19T17:02:09.529Z,28.96
2018-07-19T17:04:37.616Z,28.96
2018-07-19T17:07:05.728Z,29.03
2018-07-19T17:09:33.853Z,29.36
2018-07-19T17:12:01.893Z,29.54
2018-07-19T17:14:29.960Z,29.78
2018-07-19T17:16:58.251Z,30.15
2018-07-19T17:19:26.307Z,29.08
2018-07-19T17:21:54.405Z,30.60
2018-07-19T17:24:22.486Z,30.51
2018-07-19T17:26:50.580Z,30.24
2018-07-19T17:29:18.808Z,29.83
2018-07-19T17:31:46.884Z,29.96
2018-07-19T17:34:14.950Z,29.83
2018-07-19T17:36:43.362Z,29.52
2018-07-19T17:39:12.599Z,30.40
2018-07-19T17:41:41.268Z,30.24
2018-07-19T17:44:09.354Z,29.51
2018-07-19T17:46:37.426Z,29.54
2018-07-19T17:49:06.318Z,29.98
2018-07-19T17:51:34.478Z,29.90
2018-07-19T17:54:02.563Z,30.53
2018-07-19T17:56:30.686Z,30.48
2018-07-19T17:58:58.723Z,30.25
2018-07-19T18:01:26.830Z,30.23
2018-07-19T18:03:54.884Z,30.16
2018-07-19T18:06:23.098Z,30.83
2018-07-19T18:08:51.948Z,30.31
2018-07-19T18:11:20.229Z,30.93
2018-07-19T18:13:48.400Z,32.22
2018-07-19T18:16:16.826Z,31.68
2018-07-19T18:18:45.239Z,31.34
2018-07-19T18:21:13.423Z,31.89
2018-07-19T18:23:41.652Z,31.57
2018-07-19T18:26:09.971Z,31.44
2018-07-19T18:28:38.087Z,32.17
2018-07-19T18:31:07.567Z,32.34
2018-07-19T18:33:36.393Z,32.11
2018-07-19T18:36:05.221Z,32.70
2018-07-19T18:38:36.108Z,32.48
2018-07-19T18:41:05.542Z,32.74
2018-07-19T18:43:34.262Z,32.80
2018-07-19T18:46:06.225Z,32.53
2018-07-19T18:48:35.406Z,32.93
2018-07-19T18:51:04.527Z,33.26
2018-07-19T18:53:33.710Z,33.40
2018-07-19T18:56:01.977Z,33.37
2018-07-19T18:58:30.276Z,33.03
2018-07-19T19:00:58.721Z,33.82
2018-07-19T19:03:27.197Z,33.66
2018-07-19T19:05:55.505Z,34.12
2018-07-19T19:08:23.785Z,33.70
2018-07-19T19:10:51.959Z,34.93
2018-07-19T19:13:20.624Z,34.63
2018-07-19T19:15:49.033Z,34.99
2018-07-19T19:18:17.283Z,34.84
2018-07-19T19:20:45.441Z,35.05
2018-07-19T19:23:13.627Z,35.24
2018-07-19T19:25:41.789Z,35.40
2018-07-19T19:28:10.060Z,36.15
2018-07-19T19:30:38.327Z,36.33
2018-07-19T19:33:07.600Z,36.05
2018-07-19T19:35:36.287Z,36.64
2018-07-19T19:38:04.722Z,36.89
2018-07-19T19:40:33.231Z,37.03
2018-07-19T19:43:01.366Z,37.21
2018-07-19T19:45:29.450Z,37.10
2018-07-19T19:47:57.667Z,37.52
2018-07-19T19:50:26.236Z,37.07
2018-07-19T19:52:54.383Z,37.72
2018-07-19T19:55:22.571Z,37.49
2018-07-19T19:57:50.719Z,37.65
2018-07-19T20:00:19.499Z,37.71
2018-07-19T20:02:48.179Z,38.26
2018-07-19T20:05:16.795Z,38.47
2018-07-19T20:07:45.453Z,38.20
2018-07-19T20:10:13.751Z,38.24
2018-07-19T20:12:41.931Z,38.47
2018-07-19T20:15:11.090Z,38.49
2018-07-19T20:17:39.254Z,39.21
2018-07-19T20:20:07.815Z,38.92
2018-07-19T20:22:36.474Z,39.24
2018-07-19T20:25:05.317Z,39.52
2018-07-19T20:27:33.635Z,39.15
2018-07-19T20:30:01.956Z,39.36
2018-07-19T20:32:30.325Z,39.45
2018-07-19T20:34:58.606Z,39.96
2018-07-19T20:37:28.896Z,40.50
2018-07-19T20:39:59.912Z,40.88
2018-07-19T20:42:29.862Z,41.04
2018-07-19T20:44:58.092Z,40.83
2018-07-19T20:47:26.199Z,40.88
2018-07-19T20:49:59.212Z,40.93
2018-07-19T20:52:40.393Z,41.27
2018-07-19T20:55:09.706Z,41.87
2018-07-19T20:57:42.121Z,41.81
2018-07-19T21:00:13.715Z,42.44
2018-07-19T21:02:48.423Z,42.22
2018-07-19T21:05:16.647Z,42.32
2018-07-19T21:07:44.791Z,42.58
2018-07-19T21:10:12.907Z,43.14
2018-07-19T21:12:40.983Z,42.66
2018-07-19T21:15:09.063Z,43.43
2018-07-19T21:17:37.176Z,43.55
2018-07-19T21:20:06.541Z,43.41
2018-07-19T21:22:34.595Z,43.33
2018-07-19T21:25:03.047Z,43.56
2018-07-19T21:27:31.141Z,43.88
2018-07-19T21:29:59.747Z,44.27
2018-07-19T21:32:28.913Z,44.48
2018-07-19T21:34:57.039Z,44.33
2018-07-19T21:37:26.104Z,44.92
2018-07-19T21:39:54.825Z,44.93
2018-07-19T21:42:22.987Z,44.93
2018-07-19T21:44:51.061Z,45.38
2018-07-19T21:47:19.219Z,45.76
2018-07-19T21:49:47.317Z,45.29
2018-07-19T21:52:15.392Z,45.29
2018-07-19T21:54:43.448Z,45.39
2018-07-19T21:57:11.519Z,45.53
2018-07-19T21:59:39.711Z,46.51
2018-07-19T22:02:08.063Z,46.56
2018-07-19T22:04:36.503Z,46.51
2018-07-19T22:07:05.087Z,46.69
2018-07-19T22:09:33.257Z,47.96
2018-07-19T22:12:01.486Z,47.24
2018-07-19T22:14:29.613Z,48.31
2018-07-19T22:16:57.734Z,49.41
2018-07-19T22:19:25.821Z,49.65
2018-07-19T22:21:53.875Z,49.60
2018-07-19T22:24:21.987Z,50.12
2018-07-19T22:26:50.039Z,49.54
2018-07-19T22:29:18.093Z,50.05
2018-07-19T22:31:46.213Z,49.53
2018-07-19T22:34:14.263Z,49.65
2018-07-19T22:36:42.316Z,50.98
2018-07-19T22:39:11.691Z,52.94
2018-07-19T22:41:39.840Z,53.92
2018-07-19T22:44:08.482Z,53.95
2018-07-19T22:46:36.988Z,54.13
2018-07-19T22:49:05.501Z,55.36
2018-07-19T22:51:33.875Z,56.97
2018-07-19T22:54:02.587Z,55.05
2018-07-19T22:56:31.757Z,54.91
2018-07-19T22:59:00.979Z,54.47
2018-07-19T23:01:29.600Z,53.90
2018-07-19T23:03:59.672Z,53.03
2018-07-19T23:06:28.997Z,53.29
2018-07-19T23:08:57.898Z,52.61
2018-07-19T23:11:26.328Z,52.21
2018-07-19T23:13:54.466Z,51.90
2018-07-19T23:16:22.594Z,51.98
2018-07-19T23:18:50.647Z,52.09
2018-07-19T23:21:18.715Z,52.24
2018-07-19T23:23:47.159Z,52.48
2018-07-19T23:26:15.195Z,55.58
2018-07-19T23:28:43.237Z,54.76
2018-07-19T23:31:11.309Z,54.27
2018-07-19T23:33:39.378Z,55.41
2018-07-19T23:36:10.739Z,55.18
2018-07-19T23:38:51.008Z,54.87
2018-07-19T23:41:23.406Z,54.84
2018-07-19T23:43:55.052Z,55.29
2018-07-19T23:46:26.116Z,56.13
2018-07-19T23:48:55.312Z,56.97
2018-07-19T23:51:23.720Z,56.82
2018-07-19T23:53:51.808Z,59.52
2018-07-19T23:56:19.858Z,61.45
2018-07-19T23:58:47.920Z,61.95
